createdAt,value
2022-11-01T00:02:56.125Z,100355.59
2022-11-01T00:07:59.658Z,100350.29
2022-11-01T00:13:03.387Z,100350.91
2022-11-01T00:18:06.986Z,100349.03
2022-11-01T00:23:10.107Z,100338.71
2022-11-01T00:28:13.709Z,100342.71
2022-11-01T00:33:16.919Z,100341.65
2022-11-01T00:38:20.530Z,100341.71
2022-11-01T00:43:23.741Z,100341.07
2022-11-01T00:48:27.048Z,100335.42
2022-11-01T00:53:30.260Z,100335.77
2022-11-01T00:58:33.979Z,100335.48
2022-11-01T01:03:37.289Z,100333.04
2022-11-01T01:08:40.500Z,100326.46
2022-11-01T01:13:43.910Z,100329.52
2022-11-01T01:18:47.221Z,100324.20
2022-11-01T01:23:51.765Z,100314.12
2022-11-01T01:28:55.687Z,100306.29
2022-11-01T01:33:58.999Z,100310.02
2022-11-01T01:39:02.410Z,100307.14
2022-11-01T01:44:47.807Z,100308.26
2022-11-01T01:49:55.934Z,100306.39
2022-11-01T01:55:03.240Z,100303.36
2022-11-01T02:00:07.137Z,100294.80
2022-11-01T02:05:25.221Z,100289.42
2022-11-01T02:10:30.505Z,100291.44
2022-11-01T02:15:45.050Z,100287.47
2022-11-01T02:21:16.314Z,100282.77
2022-11-01T02:26:41.130Z,100273.80
2022-11-01T02:32:02.770Z,100265.19
2022-11-01T02:37:12.021Z,100255.08
2022-11-01T02:42:31.818Z,100245.89
2022-11-01T02:47:35.721Z,100243.53
2022-11-01T02:52:41.340Z,100246.33
2022-11-01T02:57:44.618Z,100242.42
2022-11-01T03:02:52.536Z,100243.88
2022-11-01T03:08:04.064Z,100249.28
2022-11-01T03:13:22.788Z,100255.88
2022-11-01T03:18:33.525Z,100263.02
2022-11-01T03:23:43.852Z,100261.14
2022-11-01T03:28:52.264Z,100265.77
2022-11-01T03:34:03.296Z,100263.73
2022-11-01T03:39:12.338Z,100258.88
2022-11-01T03:44:16.902Z,100266.20
2022-11-01T03:49:20.498Z,100262.27
2022-11-01T03:54:23.705Z,100255.34
2022-11-01T03:59:27.016Z,100252.40
2022-11-01T04:04:30.224Z,100247.43
2022-11-01T04:09:33.436Z,100244.39
2022-11-01T04:14:59.783Z,100236.59
2022-11-01T04:20:21.936Z,100233.00
2022-11-01T04:25:25.355Z,100232.77
2022-11-01T04:30:29.885Z,100232.27
2022-11-01T04:35:33.205Z,100231.11
2022-11-01T04:40:36.511Z,100231.38
2022-11-01T04:45:40.473Z,100228.23
2022-11-01T04:50:43.697Z,100230.72
2022-11-01T04:55:46.854Z,100240.48
2022-11-01T05:00:50.116Z,100243.89
2022-11-01T05:05:53.474Z,100237.63
2022-11-01T05:10:57.192Z,100231.05
2022-11-01T05:16:18.943Z,100223.45
2022-11-01T05:21:22.964Z,100218.46
2022-11-01T05:26:28.023Z,100212.84
2022-11-01T05:31:31.349Z,100203.29
2022-11-01T05:36:34.639Z,100193.83
2022-11-01T05:41:38.154Z,100183.11
2022-11-01T05:46:41.262Z,100174.98
2022-11-01T05:51:44.468Z,100182.55
2022-11-01T05:56:47.781Z,100189.20
2022-11-01T06:01:52.553Z,100190.65
2022-11-01T06:06:55.939Z,100196.02
2022-11-01T06:11:59.919Z,100195.48
2022-11-01T06:17:03.175Z,100198.67
2022-11-01T06:22:06.484Z,100196.45
2022-11-01T06:27:12.498Z,100191.73
2022-11-01T06:32:16.176Z,100194.36
2022-11-01T06:37:19.488Z,100203.77
2022-11-01T06:42:22.700Z,100201.04
2022-11-01T06:47:28.593Z,100193.35
2022-11-01T06:52:31.987Z,100188.81
2022-11-01T06:57:35.190Z,100187.83
2022-11-01T07:02:38.557Z,100186.88
2022-11-01T07:07:42.427Z,100184.67
2022-11-01T07:12:45.637Z,100184.58
2022-11-01T07:17:48.850Z,100188.30
2022-11-01T07:23:00.286Z,100193.98
2022-11-01T07:28:04.265Z,100200.33
2022-11-01T07:33:07.992Z,100212.15
2022-11-01T07:38:13.156Z,100213.83
2022-11-01T07:43:18.262Z,100208.84
2022-11-01T07:48:21.822Z,100201.76
2022-11-01T07:53:26.704Z,100192.94
2022-11-01T07:58:34.785Z,100181.42
2022-11-01T08:03:38.098Z,100173.02
2022-11-01T08:08:41.511Z,100171.98
2022-11-01T08:13:45.025Z,100168.30
2022-11-01T08:18:48.437Z,100159.34
2022-11-01T08:23:51.647Z,100152.98
2022-11-01T08:28:54.857Z,100139.34
2022-11-01T08:33:58.063Z,100128.35
2022-11-01T08:39:01.950Z,100119.16
2022-11-01T08:44:06.222Z,100105.57
2022-11-01T08:49:13.424Z,100097.39
2022-11-01T08:54:16.638Z,100086.31
2022-11-01T08:59:19.942Z,100080.86
2022-11-01T09:04:23.253Z,100067.81
2022-11-01T09:09:26.665Z,100054.84
2022-11-01T09:14:29.979Z,100092.17
2022-11-01T09:19:33.107Z,100067.05
2022-11-01T09:24:36.497Z,100093.89
2022-11-01T09:29:39.726Z,100098.25
2022-11-01T09:34:43.023Z,100091.84
2022-11-01T09:39:46.224Z,100086.30
2022-11-01T09:44:54.173Z,100094.30
2022-11-01T09:50:40.877Z,100070.94
2022-11-01T09:55:51.453Z,100064.41
2022-11-01T10:01:12.774Z,100065.92
2022-11-01T10:06:28.389Z,100053.23
2022-11-01T10:11:35.623Z,100057.65
2022-11-01T10:16:44.387Z,100073.48
2022-11-01T10:21:56.851Z,100078.24
2022-11-01T10:27:22.075Z,100063.64
2022-11-01T10:32:35.409Z,100052.86
2022-11-01T10:38:19.344Z,100062.04
2022-11-01T10:43:27.413Z,100066.13
2022-11-01T10:48:39.115Z,100092.15
2022-11-01T10:53:48.879Z,100115.11
2022-11-01T10:59:03.147Z,100085.56
2022-11-01T11:04:11.266Z,100071.52
2022-11-01T11:09:35.063Z,100080.78
2022-11-01T11:14:40.624Z,100088.09
2022-11-01T11:19:47.014Z,100083.55
2022-11-01T11:24:53.097Z,100103.33
2022-11-01T11:29:59.464Z,100096.58
2022-11-01T11:35:09.184Z,100120.09
2022-11-01T11:40:41.618Z,100109.08
2022-11-01T11:45:58.140Z,100096.63
2022-11-01T11:51:06.621Z,100093.90
2022-11-01T11:56:12.143Z,100091.72
2022-11-01T12:01:22.014Z,100082.79
2022-11-01T12:06:30.225Z,100086.31
2022-11-01T12:11:46.644Z,100080.34
2022-11-01T12:16:50.565Z,100089.73
2022-11-01T12:21:57.362Z,100090.77
2022-11-01T12:27:05.213Z,100097.32
2022-11-01T12:32:21.899Z,100085.80
2022-11-01T12:37:34.530Z,100088.69
2022-11-01T12:42:43.780Z,100086.31
2022-11-01T12:47:52.834Z,100083.27
2022-11-01T12:53:41.505Z,100084.28
2022-11-01T12:58:45.124Z,100075.33
2022-11-01T13:04:13.519Z,100080.27
2022-11-01T13:09:19.395Z,100069.27
2022-11-01T13:14:46.724Z,100064.10
2022-11-01T13:20:18.541Z,100052.74
2022-11-01T13:25:47.963Z,100058.00
2022-11-01T13:31:33.669Z,100073.58
2022-11-01T13:37:04.628Z,100072.00
2022-11-01T13:42:16.384Z,100082.71
2022-11-01T13:47:52.830Z,100087.83
2022-11-01T13:53:04.839Z,100083.02
2022-11-01T13:58:08.560Z,100083.66
2022-11-01T14:03:25.899Z,100089.77
2022-11-01T14:08:49.689Z,100083.39
2022-11-01T14:13:53.000Z,100087.45
2022-11-01T14:19:20.285Z,100087.77
2022-11-01T14:24:34.857Z,100087.14
2022-11-01T14:29:39.184Z,100076.68
2022-11-01T14:34:45.672Z,100073.81
2022-11-01T14:40:02.187Z,100070.70
2022-11-01T14:45:25.057Z,100076.75
2022-11-01T14:50:43.833Z,100071.85
2022-11-01T14:55:47.141Z,100059.91
2022-11-01T15:00:54.937Z,100055.84
2022-11-01T15:05:58.473Z,100058.33
2022-11-01T15:11:03.562Z,100060.65
2022-11-01T15:16:15.954Z,100061.27
2022-11-01T15:21:25.539Z,100066.34
2022-11-01T15:26:33.734Z,100054.55
2022-11-01T15:31:50.407Z,100058.24
2022-11-01T15:36:54.486Z,100053.26
2022-11-01T15:41:58.212Z,100048.70
2022-11-01T15:47:03.880Z,100047.87
2022-11-01T15:52:18.140Z,100046.67
2022-11-01T15:57:28.618Z,100044.22
2022-11-01T16:02:40.533Z,100051.73
2022-11-01T16:07:45.172Z,100056.63
2022-11-01T16:12:49.516Z,100068.58
2022-11-01T16:17:55.839Z,100070.95
2022-11-01T16:23:12.718Z,100068.02
2022-11-01T16:28:16.030Z,100062.59
2022-11-01T16:33:19.135Z,100053.77
2022-11-01T16:38:22.550Z,100042.61
2022-11-01T16:43:28.130Z,100040.81
2022-11-01T16:48:34.521Z,100044.86
2022-11-01T16:53:37.704Z,100051.85
2022-11-01T16:58:41.117Z,100045.06
2022-11-01T17:03:44.426Z,100038.05
2022-11-01T17:08:47.943Z,100036.89
2022-11-01T17:13:51.253Z,100050.40
2022-11-01T17:18:57.702Z,100046.83
2022-11-01T17:24:01.049Z,100058.42
2022-11-01T17:29:04.260Z,100063.84
2022-11-01T17:34:07.466Z,100061.15
2022-11-01T17:39:11.500Z,100060.62
2022-11-01T17:44:15.010Z,100067.08
2022-11-01T17:49:21.765Z,100066.75
2022-11-01T17:59:29.159Z,100060.00
2022-11-01T18:04:35.643Z,100057.83
2022-11-01T18:09:40.186Z,100067.95
2022-11-01T18:15:03.452Z,100077.12
2022-11-01T18:20:46.621Z,100069.73
2022-11-01T18:25:51.669Z,100072.28
2022-11-01T18:30:57.761Z,100079.86
2022-11-01T18:36:10.961Z,100082.55
2022-11-01T18:41:20.010Z,100079.79
2022-11-01T18:46:27.344Z,100072.28
2022-11-01T18:51:35.241Z,100072.77
2022-11-01T18:56:41.361Z,100070.95
2022-11-01T19:01:45.215Z,100069.80
2022-11-01T19:06:49.926Z,100070.13
2022-11-01T19:12:00.508Z,100077.27
2022-11-01T19:17:04.772Z,100080.79
2022-11-01T19:22:24.827Z,100085.91
2022-11-01T19:27:30.155Z,100082.85
2022-11-01T19:32:34.848Z,100080.27
2022-11-01T19:37:41.268Z,100081.67
2022-11-01T19:42:45.562Z,100079.23
2022-11-01T19:47:51.723Z,100081.00
2022-11-01T19:52:59.446Z,100086.60
2022-11-01T19:58:27.358Z,100081.16
2022-11-01T20:03:43.857Z,100079.67
2022-11-01T20:08:51.000Z,100079.29
2022-11-01T20:13:55.094Z,100084.59
2022-11-01T20:18:59.121Z,100087.85
2022-11-01T20:24:04.310Z,100080.98
2022-11-01T20:29:08.811Z,100075.42
2022-11-01T20:34:14.468Z,100073.53
2022-11-01T20:39:21.174Z,100073.54
2022-11-01T20:44:27.141Z,100078.92
2022-11-01T20:49:31.063Z,100083.54
2022-11-01T20:54:35.102Z,100088.32
2022-11-01T20:59:39.012Z,100083.17
2022-11-01T21:04:42.424Z,100081.33
2022-11-01T21:09:47.267Z,100086.90
2022-11-01T21:14:50.473Z,100088.02
2022-11-01T21:19:54.195Z,100087.03
2022-11-01T21:24:58.837Z,100078.89
2022-11-01T21:30:17.508Z,100076.02
2022-11-01T21:35:20.930Z,100070.88
2022-11-01T21:40:29.572Z,100068.60
2022-11-01T21:45:33.309Z,100062.98
2022-11-01T21:50:36.586Z,100064.55
2022-11-01T21:55:39.797Z,100061.73
2022-11-01T22:00:43.005Z,100069.34
2022-11-01T22:05:46.212Z,100077.04
2022-11-01T22:10:49.425Z,100082.41
2022-11-01T22:15:52.837Z,100074.54
2022-11-01T22:20:56.044Z,100069.38
2022-11-01T22:25:59.352Z,100070.95
2022-11-01T22:31:02.671Z,100070.91
2022-11-01T22:36:08.402Z,100072.03
2022-11-01T22:41:16.555Z,100076.83
2022-11-01T22:46:28.883Z,100078.02
2022-11-01T22:51:40.483Z,100084.38
2022-11-01T22:56:44.821Z,100080.32
2022-11-01T23:01:49.507Z,100080.19
2022-11-01T23:06:52.977Z,100079.73
2022-11-01T23:12:15.948Z,100080.81
2022-11-01T23:17:24.071Z,100081.86
2022-11-01T23:22:33.103Z,100081.87
2022-11-01T23:27:36.737Z,100081.27
2022-11-01T23:32:40.048Z,100079.17
2022-11-01T23:37:44.183Z,100079.47
2022-11-01T23:42:48.970Z,100083.80
2022-11-01T23:47:52.231Z,100091.43
2022-11-01T23:53:00.343Z,100090.46
2022-11-01T23:58:06.842Z,100085.71
